createdAt,value
2018-11-26T00:01:14.035Z,194.30
2018-11-26T00:03:43.611Z,162.03
2018-11-26T00:06:13.298Z,199.77
2018-11-26T00:08:42.881Z,245.00
2018-11-26T00:11:33.409Z,155.90
2018-11-26T00:14:02.977Z,187.90
2018-11-26T00:16:32.556Z,176.67
2018-11-26T00:19:02.093Z,184.77
2018-11-26T00:21:31.661Z,171.67
2018-11-26T00:24:01.194Z,175.53
2018-11-26T00:26:30.833Z,156.53
2018-11-26T00:29:00.397Z,151.03
2018-11-26T00:31:29.941Z,174.50
2018-11-26T00:33:59.513Z,154.90
2018-11-26T00:36:29.073Z,173.17
2018-11-26T00:38:58.655Z,208.43
2018-11-26T00:41:28.197Z,119.13
2018-11-26T00:43:57.764Z,173.90
2018-11-26T00:46:27.331Z,151.13
2018-11-26T00:48:56.887Z,196.93
2018-11-26T00:51:26.430Z,204.00
2018-11-26T00:53:56.047Z,157.30
2018-11-26T00:56:25.573Z,185.73
2018-11-26T00:58:55.174Z,133.03
2018-11-26T01:01:24.726Z,118.73
2018-11-26T01:03:54.300Z,157.53
2018-11-26T01:06:23.872Z,141.60
2018-11-26T01:08:53.432Z,126.40
2018-11-26T01:11:22.963Z,124.27
2018-11-26T01:13:52.530Z,148.87
2018-11-26T01:16:22.082Z,174.80
2018-11-26T01:18:51.648Z,180.50
2018-11-26T01:21:21.182Z,174.10
2018-11-26T01:23:50.793Z,172.77
2018-11-26T01:26:20.337Z,148.40
2018-11-26T01:28:49.895Z,171.87
2018-11-26T01:31:19.426Z,148.87
2018-11-26T01:33:49.017Z,152.53
2018-11-26T01:36:18.540Z,166.77
2018-11-26T01:38:48.109Z,148.57
2018-11-26T01:41:17.648Z,147.83
2018-11-26T01:43:47.203Z,148.97
2018-11-26T01:46:16.749Z,133.27
2018-11-26T01:48:46.297Z,181.23
2018-11-26T01:51:15.833Z,134.90
2018-11-26T01:53:45.421Z,177.73
2018-11-26T01:56:14.952Z,160.20
2018-11-26T01:58:44.513Z,192.83
2018-11-26T02:01:14.046Z,162.17
2018-11-26T02:03:43.604Z,192.67
2018-11-26T02:06:13.133Z,171.60
2018-11-26T02:08:42.725Z,202.73
2018-11-26T02:11:12.245Z,178.83
2018-11-26T02:13:41.770Z,179.57
2018-11-26T02:16:11.348Z,177.73
2018-11-26T02:18:40.879Z,165.60
2018-11-26T02:21:10.406Z,175.43
2018-11-26T02:23:39.982Z,252.23
2018-11-26T02:26:09.560Z,139.53
2018-11-26T02:28:39.152Z,173.53
2018-11-26T02:31:08.682Z,178.20
2018-11-26T02:33:38.206Z,179.27
2018-11-26T02:36:07.798Z,181.00
2018-11-26T02:38:37.317Z,166.00
2018-11-26T02:41:06.964Z,191.23
2018-11-26T02:43:36.539Z,186.00
2018-11-26T02:46:06.308Z,173.50
2018-11-26T02:48:35.870Z,162.30
2018-11-26T02:51:05.572Z,145.60
2018-11-26T02:53:35.112Z,179.47
2018-11-26T02:56:04.657Z,180.70
2018-11-26T02:58:34.229Z,189.50
2018-11-26T03:01:03.823Z,207.27
2018-11-26T03:03:33.344Z,188.33
2018-11-26T03:06:02.913Z,162.30
2018-11-26T03:08:32.477Z,164.37
2018-11-26T03:11:02.010Z,150.33
2018-11-26T03:13:31.585Z,161.93
2018-11-26T03:16:01.145Z,156.33
2018-11-26T03:18:30.675Z,144.13
2018-11-26T03:21:00.249Z,163.00
2018-11-26T03:23:29.800Z,161.40
2018-11-26T03:25:59.389Z,195.50
2018-11-26T03:28:28.928Z,248.23
2018-11-26T03:30:58.453Z,223.40
2018-11-26T03:33:28.037Z,299.27
2018-11-26T03:35:57.565Z,300.03
2018-11-26T03:38:40.043Z,384.83
2018-11-26T03:41:09.564Z,287.40
2018-11-26T03:43:39.105Z,328.57
2018-11-26T03:46:08.661Z,295.50
2018-11-26T03:48:38.213Z,295.37
2018-11-26T03:51:07.795Z,237.00
2018-11-26T03:53:37.396Z,271.37
2018-11-26T03:56:07.530Z,276.60
2018-11-26T03:58:37.093Z,223.23
2018-11-26T04:01:07.292Z,227.97
2018-11-26T04:03:36.801Z,319.80
2018-11-26T04:06:06.403Z,219.00
2018-11-26T04:08:35.924Z,218.00
2018-11-26T04:11:06.181Z,179.10
2018-11-26T04:13:35.707Z,216.10
2018-11-26T04:16:05.358Z,223.40
2018-11-26T04:18:34.929Z,189.40
2018-11-26T04:21:04.504Z,175.57
2018-11-26T04:23:34.026Z,171.73
2018-11-26T04:26:03.584Z,159.27
2018-11-26T04:28:33.089Z,141.90
2018-11-26T04:31:02.603Z,151.03
2018-11-26T04:33:32.184Z,135.93
2018-11-26T04:36:01.718Z,135.47
2018-11-26T04:38:31.253Z,125.67
2018-11-26T04:41:00.813Z,123.47
2018-11-26T04:43:30.353Z,120.27
2018-11-26T04:45:59.878Z,122.63
2018-11-26T04:48:29.437Z,118.50
2018-11-26T04:50:59.005Z,109.70
2018-11-26T04:53:28.569Z,98.53
2018-11-26T04:55:58.180Z,102.33
2018-11-26T04:58:27.688Z,90.10
2018-11-26T05:00:57.226Z,89.07
2018-11-26T05:03:26.804Z,90.57
2018-11-26T05:05:56.357Z,103.47
2018-11-26T05:08:25.943Z,99.57
2018-11-26T05:10:55.520Z,101.00
2018-11-26T05:13:25.045Z,96.83
2018-11-26T05:15:54.569Z,104.73
2018-11-26T05:18:24.149Z,101.80
2018-11-26T05:20:53.704Z,106.50
2018-11-26T05:23:23.212Z,104.63
2018-11-26T05:25:53.345Z,103.73
2018-11-26T05:28:22.867Z,102.00
2018-11-26T05:30:52.382Z,94.07
2018-11-26T05:33:21.924Z,99.00
2018-11-26T05:35:51.460Z,92.63
2018-11-26T05:38:20.974Z,102.00
2018-11-26T05:40:50.566Z,97.83
2018-11-26T05:43:20.141Z,94.83
2018-11-26T05:45:49.668Z,93.17
2018-11-26T05:48:19.226Z,95.50
2018-11-26T05:50:48.773Z,84.43
2018-11-26T05:53:18.880Z,82.07
2018-11-26T05:55:48.420Z,78.63
2018-11-26T05:58:17.936Z,81.10
2018-11-26T06:00:47.519Z,82.97
2018-11-26T06:03:17.040Z,76.87
2018-11-26T06:05:46.569Z,74.83
2018-11-26T06:08:16.157Z,82.03
2018-11-26T06:10:45.670Z,80.73
2018-11-26T06:13:15.209Z,77.17
2018-11-26T06:15:44.784Z,82.40
2018-11-26T06:18:14.301Z,74.93
2018-11-26T06:20:43.809Z,69.40
2018-11-26T06:23:13.348Z,79.47
2018-11-26T06:25:42.852Z,73.20
2018-11-26T06:28:12.381Z,77.80
2018-11-26T06:30:41.974Z,69.23
2018-11-26T06:33:11.496Z,82.17
2018-11-26T06:35:41.080Z,73.97
2018-11-26T06:38:10.589Z,80.17
2018-11-26T06:40:40.102Z,76.07
2018-11-26T06:43:09.701Z,77.20
2018-11-26T06:45:39.236Z,74.80
2018-11-26T06:48:08.751Z,73.83
2018-11-26T06:50:38.313Z,77.50
2018-11-26T06:53:08.071Z,75.87
2018-11-26T06:55:37.631Z,77.67
2018-11-26T06:58:07.165Z,78.93
2018-11-26T07:00:36.717Z,80.17
2018-11-26T07:03:06.341Z,73.37
2018-11-26T07:05:35.854Z,80.77
2018-11-26T07:08:05.472Z,79.30
2018-11-26T07:10:34.993Z,78.30
2018-11-26T07:13:04.516Z,73.37
2018-11-26T07:15:34.046Z,82.57
2018-11-26T07:18:03.618Z,79.93
2018-11-26T07:20:33.153Z,76.87
2018-11-26T07:23:02.648Z,86.80
2018-11-26T07:25:32.169Z,81.93
2018-11-26T07:28:01.785Z,77.73
2018-11-26T07:30:31.600Z,78.23
2018-11-26T07:33:02.589Z,74.07
2018-11-26T07:35:32.898Z,71.83
2018-11-26T07:38:03.281Z,71.70
2018-11-26T07:40:32.832Z,73.87
2018-11-26T07:43:05.100Z,70.47
2018-11-26T07:45:34.685Z,71.17
2018-11-26T07:48:04.217Z,65.47
2018-11-26T07:50:33.760Z,65.97
2018-11-26T07:53:03.265Z,68.00
2018-11-26T07:55:32.836Z,69.50
2018-11-26T07:58:02.368Z,69.33
2018-11-26T08:00:31.898Z,66.50
2018-11-26T08:03:01.423Z,58.30
2018-11-26T08:05:30.953Z,68.70
2018-11-26T08:08:00.441Z,62.43
2018-11-26T08:10:29.972Z,64.17
2018-11-26T08:12:59.486Z,58.40
2018-11-26T08:15:29.270Z,56.97
2018-11-26T08:17:58.781Z,60.27
2018-11-26T08:20:28.321Z,58.27
2018-11-26T08:22:57.836Z,57.87
2018-11-26T08:25:27.369Z,53.57
2018-11-26T08:27:56.924Z,51.30
2018-11-26T08:30:27.654Z,59.33
2018-11-26T08:32:59.245Z,51.50
2018-11-26T08:35:28.960Z,52.07
2018-11-26T08:38:03.754Z,57.07
2018-11-26T08:40:38.517Z,58.97
2018-11-26T08:44:13.906Z,56.17
2018-11-26T08:46:47.412Z,51.83
2018-11-26T08:49:20.868Z,57.57
2018-11-26T08:51:50.406Z,59.27
2018-11-26T08:54:19.903Z,60.30
2018-11-26T08:56:49.477Z,66.17
2018-11-26T08:59:18.992Z,62.27
2018-11-26T09:01:49.768Z,63.90
2018-11-26T09:04:20.317Z,61.00
2018-11-26T09:06:49.918Z,60.20
2018-11-26T09:09:19.424Z,65.27
2018-11-26T09:11:48.969Z,59.90
2018-11-26T09:14:18.493Z,58.17
2018-11-26T09:16:48.047Z,66.80
2018-11-26T09:19:17.552Z,65.53
2018-11-26T09:21:47.095Z,59.17
2018-11-26T09:24:16.616Z,65.30
2018-11-26T09:26:46.161Z,65.07
2018-11-26T09:29:15.945Z,60.90
2018-11-26T09:31:45.568Z,60.77
2018-11-26T09:34:15.081Z,68.90
2018-11-26T09:36:44.620Z,64.20
2018-11-26T09:39:14.160Z,66.87
2018-11-26T09:41:44.192Z,68.10
2018-11-26T09:44:13.736Z,68.00
2018-11-26T09:46:43.277Z,70.40
2018-11-26T09:49:12.811Z,61.93
2018-11-26T09:51:42.813Z,57.40
2018-11-26T09:54:12.337Z,56.93
2018-11-26T09:56:41.880Z,56.30
2018-11-26T09:59:11.392Z,54.63
2018-11-26T10:01:40.929Z,51.17
2018-11-26T10:04:10.453Z,50.90
2018-11-26T10:06:40.018Z,47.23
2018-11-26T10:09:11.072Z,44.03
2018-11-26T10:11:40.613Z,49.33
2018-11-26T10:14:10.165Z,48.60
2018-11-26T10:16:39.791Z,49.47
2018-11-26T10:19:09.312Z,44.93
2018-11-26T10:21:38.885Z,38.67
2018-11-26T10:24:08.437Z,37.87
2018-11-26T10:26:37.985Z,36.10
2018-11-26T10:29:07.505Z,37.90
2018-11-26T10:31:37.090Z,39.10
2018-11-26T10:34:06.621Z,34.97
2018-11-26T10:36:36.176Z,36.37
2018-11-26T10:39:09.120Z,37.50
2018-11-26T10:41:38.677Z,33.60
2018-11-26T10:44:08.210Z,35.93
2018-11-26T10:46:37.752Z,35.10
2018-11-26T10:49:07.309Z,33.97
2018-11-26T10:51:36.856Z,35.00
2018-11-26T10:54:06.420Z,33.00
2018-11-26T10:56:35.956Z,34.23
2018-11-26T10:59:05.565Z,31.00
2018-11-26T11:01:38.221Z,35.53
2018-11-26T11:04:07.998Z,33.10
2018-11-26T11:06:37.585Z,31.57
2018-11-26T11:09:08.456Z,35.23
2018-11-26T11:11:37.985Z,30.87
2018-11-26T11:14:07.517Z,30.93
2018-11-26T11:16:37.092Z,33.97
2018-11-26T11:19:06.673Z,33.03
2018-11-26T11:21:36.217Z,35.33
2018-11-26T11:24:06.052Z,34.73
2018-11-26T11:26:35.622Z,40.20
2018-11-26T11:29:05.210Z,37.13
2018-11-26T11:31:34.758Z,41.77
2018-11-26T11:34:04.354Z,40.47
2018-11-26T11:36:33.877Z,38.83
2018-11-26T11:39:03.532Z,39.00
2018-11-26T11:41:34.593Z,40.27
2018-11-26T11:44:02.639Z,36.90
2018-11-26T11:46:38.738Z,42.37
2018-11-26T11:49:08.263Z,42.57
2018-11-26T11:51:37.786Z,43.10
2018-11-26T11:54:07.398Z,39.47
2018-11-26T11:56:36.918Z,40.93
2018-11-26T11:59:06.746Z,41.87
2018-11-26T12:01:36.262Z,42.23
2018-11-26T12:04:06.595Z,41.03
2018-11-26T12:06:36.119Z,41.93
2018-11-26T12:09:09.099Z,41.07
2018-11-26T12:11:38.626Z,38.80
2018-11-26T12:14:08.159Z,39.33
2018-11-26T12:16:37.687Z,41.50
2018-11-26T12:19:07.621Z,44.77
2018-11-26T12:21:37.202Z,40.73
2018-11-26T12:24:07.158Z,41.83
2018-11-26T12:26:36.678Z,42.13
2018-11-26T12:29:06.350Z,42.00
2018-11-26T12:31:35.907Z,41.93
2018-11-26T12:34:06.018Z,42.93
2018-11-26T12:36:35.555Z,42.17
2018-11-26T12:39:07.706Z,46.43
2018-11-26T12:41:37.343Z,45.87
2018-11-26T12:44:07.087Z,48.97
2018-11-26T12:46:36.620Z,48.73
2018-11-26T12:49:06.226Z,45.97
2018-11-26T12:51:35.735Z,48.93
2018-11-26T12:54:05.677Z,51.97
2018-11-26T12:56:35.186Z,50.57
2018-11-26T12:59:04.778Z,46.93
2018-11-26T13:01:34.298Z,50.73
2018-11-26T13:04:03.857Z,47.37
2018-11-26T13:06:33.374Z,47.37
2018-11-26T13:09:02.997Z,52.30
2018-11-26T13:11:32.521Z,49.00
2018-11-26T13:14:02.067Z,51.20
2018-11-26T13:16:31.590Z,52.77
2018-11-26T13:19:01.118Z,53.77
2018-11-26T13:21:30.640Z,51.10
2018-11-26T13:24:00.192Z,61.97
2018-11-26T13:26:29.714Z,58.60
2018-11-26T13:28:59.271Z,60.77
2018-11-26T13:31:28.818Z,60.30
2018-11-26T13:33:58.370Z,63.73
2018-11-26T13:36:27.898Z,66.87
2018-11-26T13:38:57.472Z,64.43
2018-11-26T13:41:27.001Z,60.77
2018-11-26T13:43:56.571Z,62.57
2018-11-26T13:46:26.106Z,60.03
2018-11-26T13:48:55.653Z,65.47
2018-11-26T13:51:25.202Z,63.83
2018-11-26T13:53:54.739Z,65.50
2018-11-26T13:56:24.297Z,59.53
2018-11-26T13:58:53.806Z,61.67
2018-11-26T14:01:23.373Z,65.13
2018-11-26T14:03:52.883Z,63.53
2018-11-26T14:06:22.423Z,65.27
2018-11-26T14:08:51.941Z,62.73
2018-11-26T14:11:21.484Z,63.27
2018-11-26T14:13:51.008Z,65.70
2018-11-26T14:16:20.567Z,57.80
2018-11-26T14:18:50.082Z,67.53
2018-11-26T14:21:19.662Z,57.03
2018-11-26T14:23:49.178Z,64.50
2018-11-26T14:26:18.738Z,65.93
2018-11-26T14:28:48.270Z,60.00
2018-11-26T14:31:17.858Z,62.40
2018-11-26T14:33:47.390Z,65.50
2018-11-26T14:36:16.954Z,61.50
2018-11-26T14:38:46.466Z,62.77
2018-11-26T14:41:16.014Z,66.37
2018-11-26T14:43:45.594Z,58.77
2018-11-26T14:46:15.143Z,63.57
2018-11-26T14:48:44.678Z,62.10
2018-11-26T14:51:14.239Z,65.37
2018-11-26T14:53:43.746Z,66.17
2018-11-26T14:56:13.310Z,59.73
2018-11-26T14:58:42.842Z,66.60
2018-11-26T15:01:12.441Z,64.67
2018-11-26T15:03:41.963Z,67.30
2018-11-26T15:06:11.517Z,67.83
2018-11-26T15:08:41.053Z,66.40
2018-11-26T15:11:10.610Z,65.67
2018-11-26T15:13:40.126Z,67.83
2018-11-26T15:16:09.690Z,64.90
2018-11-26T15:18:39.220Z,65.07
2018-11-26T15:21:08.814Z,69.33
2018-11-26T15:23:38.337Z,70.97
2018-11-26T15:26:07.885Z,70.77
2018-11-26T15:28:37.418Z,67.37
2018-11-26T15:31:07.022Z,73.57
2018-11-26T15:33:36.550Z,73.07
2018-11-26T15:36:06.712Z,69.30
2018-11-26T15:38:36.247Z,69.80
2018-11-26T15:41:06.175Z,68.40
2018-11-26T15:43:35.715Z,71.60
2018-11-26T15:46:05.294Z,75.87
2018-11-26T15:48:34.830Z,70.40
2018-11-26T15:51:04.382Z,72.73
2018-11-26T15:53:33.907Z,69.53
2018-11-26T15:56:03.494Z,77.23
2018-11-26T15:58:39.775Z,73.03
2018-11-26T16:01:09.340Z,67.80
2018-11-26T16:03:38.862Z,65.07
2018-11-26T16:06:08.390Z,69.77
2018-11-26T16:08:37.925Z,71.93
2018-11-26T16:11:07.514Z,68.63
2018-11-26T16:13:37.051Z,64.30
2018-11-26T16:16:07.170Z,71.80
2018-11-26T16:18:36.813Z,67.20
2018-11-26T16:21:06.303Z,67.53
2018-11-26T16:23:35.858Z,66.70
2018-11-26T16:26:06.090Z,61.77
2018-11-26T16:28:35.627Z,69.57
2018-11-26T16:31:05.218Z,73.03
2018-11-26T16:33:34.727Z,64.27
2018-11-26T16:36:04.283Z,63.87
2018-11-26T16:38:33.803Z,64.83
2018-11-26T16:41:03.394Z,65.53
2018-11-26T16:43:32.910Z,64.73
2018-11-26T16:46:02.462Z,67.00
2018-11-26T16:48:32.017Z,65.40
2018-11-26T16:51:01.603Z,65.83
2018-11-26T16:53:31.137Z,69.47
2018-11-26T16:56:00.690Z,60.37
2018-11-26T16:58:30.214Z,65.17
2018-11-26T17:00:59.773Z,65.13
2018-11-26T17:03:29.365Z,64.20
2018-11-26T17:05:58.958Z,64.63
2018-11-26T17:08:28.478Z,66.27
2018-11-26T17:10:58.030Z,63.07
2018-11-26T17:13:27.538Z,57.53
2018-11-26T17:15:57.066Z,61.67
2018-11-26T17:18:26.570Z,61.73
2018-11-26T17:20:56.153Z,62.87
2018-11-26T17:23:25.669Z,61.80
2018-11-26T17:25:55.214Z,60.23
2018-11-26T17:28:24.717Z,55.07
2018-11-26T17:30:54.293Z,57.23
2018-11-26T17:33:23.819Z,53.77
2018-11-26T17:35:53.379Z,58.70
2018-11-26T17:38:22.897Z,52.63
2018-11-26T17:40:52.434Z,51.70
2018-11-26T17:43:21.970Z,50.23
2018-11-26T17:45:51.529Z,55.83
2018-11-26T17:48:21.054Z,50.60
2018-11-26T17:50:50.602Z,52.37
2018-11-26T17:53:21.302Z,46.97
2018-11-26T17:55:56.780Z,49.60
2018-11-26T17:58:28.306Z,51.07
2018-11-26T18:01:04.142Z,56.43
2018-11-26T18:03:33.658Z,55.27
2018-11-26T18:06:03.210Z,51.57
2018-11-26T18:08:32.817Z,47.73
2018-11-26T18:11:02.359Z,52.67
2018-11-26T18:13:31.880Z,46.93
2018-11-26T18:16:01.439Z,48.73
2018-11-26T18:18:30.975Z,51.60
2018-11-26T18:21:00.534Z,47.37
2018-11-26T18:23:30.065Z,49.37
2018-11-26T18:25:59.611Z,46.80
2018-11-26T18:28:29.306Z,53.13
2018-11-26T18:30:58.855Z,47.40
2018-11-26T18:33:28.358Z,47.00
2018-11-26T18:35:57.930Z,46.27
2018-11-26T18:38:27.442Z,50.30
2018-11-26T18:41:03.536Z,45.23
2018-11-26T18:43:33.119Z,46.47
2018-11-26T18:46:02.642Z,45.70
2018-11-26T18:48:32.143Z,46.40
2018-11-26T18:51:01.690Z,45.27
2018-11-26T18:53:31.218Z,41.93
2018-11-26T18:56:00.759Z,43.07
2018-11-26T18:58:30.316Z,42.17
2018-11-26T19:01:00.996Z,45.03
2018-11-26T19:03:30.578Z,41.63
2018-11-26T19:06:00.112Z,42.20
2018-11-26T19:08:29.679Z,41.13
2018-11-26T19:11:02.996Z,38.60
2018-11-26T19:13:40.731Z,42.67
2018-11-26T19:16:13.212Z,40.63
2018-11-26T19:18:42.722Z,39.53
2018-11-26T19:21:12.246Z,38.57
2018-11-26T19:23:41.808Z,42.20
2018-11-26T19:26:11.362Z,38.10
2018-11-26T19:28:40.922Z,38.73
2018-11-26T19:31:10.482Z,39.67
2018-11-26T19:33:40.053Z,37.23
2018-11-26T19:36:09.653Z,38.83
2018-11-26T19:38:39.223Z,39.43
2018-11-26T19:41:08.783Z,38.20
2018-11-26T19:43:38.382Z,36.80
2018-11-26T19:46:07.963Z,39.03
2018-11-26T19:48:37.538Z,39.73
2018-11-26T19:51:07.143Z,36.33
2018-11-26T19:53:36.695Z,39.30
2018-11-26T19:56:06.259Z,40.33
2018-11-26T19:58:35.825Z,36.87
2018-11-26T20:01:05.484Z,37.80
2018-11-26T20:03:39.147Z,37.53
2018-11-26T20:06:13.265Z,35.07
2018-11-26T20:08:44.301Z,32.43
2018-11-26T20:11:13.146Z,38.03
2018-11-26T20:13:42.687Z,28.80
2018-11-26T20:16:15.802Z,30.30
2018-11-26T20:18:45.366Z,32.23
2018-11-26T20:21:14.922Z,34.37
2018-11-26T20:23:44.479Z,29.97
2018-11-26T20:26:14.002Z,29.93
2018-11-26T20:28:43.551Z,29.37
2018-11-26T20:31:13.100Z,30.40
2018-11-26T20:33:42.666Z,27.60
2018-11-26T20:36:13.508Z,29.77
2018-11-26T20:38:43.057Z,29.33
2018-11-26T20:41:13.358Z,27.57
2018-11-26T20:43:42.952Z,26.63
2018-11-26T20:46:12.492Z,30.60
2018-11-26T20:48:42.302Z,28.87
2018-11-26T20:51:11.831Z,27.77
2018-11-26T20:53:42.262Z,28.97
2018-11-26T20:56:14.607Z,38.77
2018-11-26T20:58:44.644Z,39.80
2018-11-26T21:01:14.316Z,40.87
2018-11-26T21:03:43.911Z,32.83
2018-11-26T21:06:13.563Z,30.87
2018-11-26T21:08:43.162Z,32.67
2018-11-26T21:11:13.038Z,32.70
2018-11-26T21:13:42.614Z,30.73
2018-11-26T21:16:12.210Z,30.90
2018-11-26T21:18:41.890Z,29.43
2018-11-26T21:21:11.510Z,29.23
2018-11-26T21:23:41.142Z,27.47
2018-11-26T21:26:10.754Z,29.07
2018-11-26T21:28:40.334Z,29.07
2018-11-26T21:31:09.992Z,27.50
2018-11-26T21:33:39.578Z,28.23
2018-11-26T21:36:09.186Z,31.60
2018-11-26T21:38:40.157Z,28.50
2018-11-26T21:41:09.778Z,31.17
2018-11-26T21:43:39.383Z,27.70
2018-11-26T21:46:09.261Z,27.30
2018-11-26T21:48:38.842Z,29.50
2018-11-26T21:51:08.443Z,29.53
2018-11-26T21:53:38.106Z,29.07
2018-11-26T21:56:07.825Z,29.90
2018-11-26T21:58:37.438Z,27.50
2018-11-26T22:01:09.066Z,30.63
2018-11-26T22:03:38.661Z,32.20
2018-11-26T22:06:08.294Z,34.73
2018-11-26T22:08:37.946Z,33.63
2018-11-26T22:11:07.579Z,32.77
2018-11-26T22:13:37.167Z,32.73
2018-11-26T22:16:06.806Z,36.63
2018-11-26T22:18:36.402Z,31.17
2018-11-26T22:21:06.386Z,33.13
2018-11-26T22:23:35.974Z,35.77
2018-11-26T22:26:05.657Z,36.43
2018-11-26T22:28:35.468Z,33.17
2018-11-26T22:31:05.170Z,35.77
2018-11-26T22:33:34.772Z,34.80
2018-11-26T22:36:04.397Z,37.57
2018-11-26T22:38:34.000Z,33.37
2018-11-26T22:41:03.556Z,32.73
2018-11-26T22:43:33.090Z,34.07
2018-11-26T22:46:02.762Z,29.93
2018-11-26T22:48:32.289Z,32.63
2018-11-26T22:51:01.865Z,31.13
2018-11-26T22:53:31.447Z,30.80
2018-11-26T22:56:00.998Z,31.53
2018-11-26T22:58:30.536Z,28.73
2018-11-26T23:01:00.110Z,30.00
2018-11-26T23:03:32.278Z,30.93
2018-11-26T23:06:01.846Z,28.90
2018-11-26T23:08:31.474Z,27.63
2018-11-26T23:11:01.084Z,26.90
2018-11-26T23:13:30.671Z,28.07
2018-11-26T23:16:00.226Z,29.40
2018-11-26T23:18:29.766Z,29.20
2018-11-26T23:20:59.323Z,29.17
2018-11-26T23:23:28.857Z,27.47
2018-11-26T23:25:58.419Z,30.23
2018-11-26T23:28:27.954Z,27.50
2018-11-26T23:30:57.566Z,25.37
2018-11-26T23:33:27.103Z,28.43
2018-11-26T23:35:56.669Z,27.27
2018-11-26T23:38:26.214Z,23.93
2018-11-26T23:40:55.817Z,24.20
2018-11-26T23:43:25.370Z,24.50
2018-11-26T23:45:54.910Z,26.17
2018-11-26T23:48:24.454Z,25.60
2018-11-26T23:50:53.997Z,25.87
2018-11-26T23:53:23.575Z,27.63
2018-11-26T23:55:53.230Z,26.13
2018-11-26T23:58:22.752Z,25.47
